createdAt,value
2019-01-09T00:00:33.602Z,5.80
2019-01-09T00:03:04.608Z,5.80
2019-01-09T00:05:35.707Z,5.80
2019-01-09T00:08:07.486Z,5.70
2019-01-09T00:10:39.130Z,5.70
2019-01-09T00:13:10.890Z,5.70
2019-01-09T00:15:44.419Z,5.70
2019-01-09T00:18:15.540Z,5.80
2019-01-09T00:20:53.374Z,5.70
2019-01-09T00:23:31.458Z,5.70
2019-01-09T00:26:02.957Z,5.70
2019-01-09T00:28:35.142Z,5.60
2019-01-09T00:31:06.555Z,5.60
2019-01-09T00:33:38.571Z,5.60
2019-01-09T00:36:11.072Z,5.60
2019-01-09T00:38:42.159Z,5.60
2019-01-09T00:41:14.784Z,5.60
2019-01-09T00:43:49.199Z,5.60
2019-01-09T00:46:22.067Z,5.60
2019-01-09T00:48:53.665Z,5.50
2019-01-09T00:51:24.952Z,5.40
2019-01-09T00:53:56.229Z,5.40
2019-01-09T00:56:28.589Z,5.40
2019-01-09T00:58:59.890Z,5.50
2019-01-09T01:01:31.235Z,5.50
2019-01-09T01:04:46.263Z,5.50
2019-01-09T01:08:04.169Z,5.50
2019-01-09T01:11:03.562Z,5.60
2019-01-09T01:14:05.716Z,5.60
2019-01-09T01:17:12.385Z,5.60
2019-01-09T01:20:13.044Z,5.40
2019-01-09T01:23:38.394Z,5.30
2019-01-09T01:26:46.111Z,5.20
2019-01-09T01:29:46.231Z,5.10
2019-01-09T01:32:45.678Z,5.10
2019-01-09T01:36:06.842Z,5.10
2019-01-09T01:39:24.293Z,5.10
2019-01-09T01:42:17.328Z,5.00
2019-01-09T01:45:39.416Z,5.00
2019-01-09T01:48:57.707Z,5.00
2019-01-09T01:52:26.880Z,5.00
2019-01-09T01:55:19.216Z,5.10
2019-01-09T01:58:30.762Z,5.10
2019-01-09T02:01:44.233Z,5.10
2019-01-09T02:04:41.648Z,5.10
2019-01-09T02:07:46.976Z,5.00
2019-01-09T02:11:07.795Z,5.00
2019-01-09T02:14:00.918Z,5.00
2019-01-09T02:17:22.090Z,5.10
2019-01-09T02:24:08.280Z,5.20
2019-01-09T02:27:07.772Z,5.20
2019-01-09T02:30:24.802Z,5.10
2019-01-09T02:33:15.493Z,5.10
2019-01-09T02:35:57.645Z,5.10
2019-01-09T02:38:32.294Z,5.10
2019-01-09T02:41:11.409Z,5.20
2019-01-09T02:43:54.827Z,5.10
2019-01-09T02:46:33.298Z,5.10
2019-01-09T02:49:11.227Z,5.10
2019-01-09T02:52:01.454Z,5.00
2019-01-09T02:54:39.063Z,5.00
2019-01-09T02:57:10.412Z,5.00
2019-01-09T02:59:41.655Z,4.90
2019-01-09T03:02:13.186Z,4.80
2019-01-09T03:04:46.329Z,4.90
2019-01-09T03:07:18.985Z,4.80
2019-01-09T03:09:57.724Z,4.90
2019-01-09T03:12:32.362Z,4.90
2019-01-09T03:15:43.286Z,4.90
2019-01-09T03:18:33.672Z,4.80
2019-01-09T03:21:25.150Z,4.80
2019-01-09T03:24:00.548Z,4.70
2019-01-09T03:26:43.004Z,4.70
2019-01-09T03:29:19.135Z,4.80
2019-01-09T03:31:54.020Z,4.70
2019-01-09T03:34:30.033Z,4.70
2019-01-09T03:37:11.377Z,4.80
2019-01-09T03:39:50.887Z,4.80
2019-01-09T03:42:25.071Z,4.70
2019-01-09T03:45:11.044Z,4.80
2019-01-09T03:47:49.664Z,4.80
2019-01-09T03:50:32.139Z,4.80
2019-01-09T03:53:04.081Z,4.80
2019-01-09T03:55:44.565Z,4.70
2019-01-09T03:58:28.176Z,4.80
2019-01-09T04:01:00.012Z,4.80
2019-01-09T04:03:31.561Z,4.80
2019-01-09T04:06:02.856Z,4.80
2019-01-09T04:08:34.067Z,4.90
2019-01-09T04:11:09.097Z,4.80
2019-01-09T04:13:45.744Z,4.80
2019-01-09T04:16:40.266Z,4.80
2019-01-09T04:19:36.212Z,4.90
2019-01-09T04:22:34.749Z,4.90
2019-01-09T04:25:22.284Z,4.90
2019-01-09T04:27:58.154Z,4.90
2019-01-09T04:30:42.128Z,5.00
2019-01-09T04:33:29.476Z,4.90
2019-01-09T04:36:33.158Z,4.90
2019-01-09T04:39:32.543Z,5.00
2019-01-09T04:42:38.318Z,4.90
2019-01-09T04:45:11.728Z,4.90
2019-01-09T04:47:44.564Z,5.00
2019-01-09T04:50:17.538Z,5.00
2019-01-09T04:52:50.714Z,5.00
2019-01-09T04:55:22.102Z,5.00
2019-01-09T04:57:57.257Z,5.00
2019-01-09T05:00:33.097Z,5.00
2019-01-09T05:03:10.656Z,5.00
2019-01-09T05:06:06.265Z,4.90
2019-01-09T05:09:34.526Z,5.00
2019-01-09T05:12:05.907Z,5.00
2019-01-09T05:14:47.406Z,4.90
2019-01-09T05:17:22.767Z,4.90
2019-01-09T05:20:06.199Z,5.00
2019-01-09T05:22:44.642Z,5.00
2019-01-09T05:25:18.636Z,4.90
2019-01-09T05:28:01.328Z,5.00
2019-01-09T05:30:41.220Z,5.00
2019-01-09T05:33:29.203Z,5.00
2019-01-09T05:36:02.993Z,5.00
2019-01-09T05:38:36.881Z,5.00
2019-01-09T05:41:09.362Z,5.00
2019-01-09T05:43:40.861Z,5.00
2019-01-09T05:46:12.089Z,4.90
2019-01-09T05:48:45.600Z,4.90
2019-01-09T05:51:16.926Z,5.00
2019-01-09T05:53:48.632Z,5.00
2019-01-09T05:56:19.849Z,4.90
2019-01-09T05:58:51.515Z,4.90
2019-01-09T06:01:24.926Z,4.90
2019-01-09T06:03:56.132Z,4.80
2019-01-09T06:06:27.228Z,4.70
2019-01-09T06:08:58.840Z,4.80
2019-01-09T06:11:40.998Z,4.70
2019-01-09T06:21:51.233Z,4.80
2019-01-09T06:25:11.567Z,4.90
2019-01-09T06:28:11.590Z,4.90
2019-01-09T06:36:49.738Z,4.80
2019-01-09T06:39:48.804Z,4.70
2019-01-09T06:50:39.142Z,4.60
2019-01-09T06:54:13.437Z,4.60
2019-01-09T06:57:02.636Z,4.60
2019-01-09T07:00:11.974Z,4.60
2019-01-09T07:02:46.131Z,4.60
2019-01-09T07:05:20.567Z,4.60
2019-01-09T07:07:51.915Z,4.60
2019-01-09T07:10:23.299Z,4.60
2019-01-09T07:12:54.843Z,4.70
2019-01-09T07:15:26.413Z,4.70
2019-01-09T07:17:57.848Z,4.80
2019-01-09T07:20:29.057Z,4.80
2019-01-09T07:23:00.977Z,4.80
2019-01-09T07:25:33.070Z,4.70
2019-01-09T07:28:04.486Z,4.70
2019-01-09T07:30:35.852Z,4.60
2019-01-09T07:33:07.057Z,4.60
2019-01-09T07:35:38.563Z,4.60
2019-01-09T07:38:10.501Z,4.60
2019-01-09T07:40:42.033Z,4.60
2019-01-09T07:43:14.572Z,4.60
2019-01-09T07:45:46.482Z,4.60
2019-01-09T07:48:18.802Z,4.70
2019-01-09T07:50:49.885Z,4.70
2019-01-09T07:53:21.292Z,4.70
2019-01-09T07:55:52.371Z,4.60
2019-01-09T07:58:24.010Z,4.60
2019-01-09T08:00:56.679Z,4.60
2019-01-09T08:03:28.052Z,4.60
2019-01-09T08:05:59.099Z,4.60
2019-01-09T08:08:30.178Z,4.60
2019-01-09T08:11:02.106Z,4.60
2019-01-09T08:13:33.536Z,4.60
2019-01-09T08:16:05.562Z,4.60
2019-01-09T08:18:37.113Z,4.60
2019-01-09T08:21:08.260Z,4.60
2019-01-09T08:23:39.985Z,4.60
2019-01-09T08:26:11.233Z,4.60
2019-01-09T08:28:42.913Z,4.60
2019-01-09T08:31:14.323Z,4.60
2019-01-09T08:33:45.595Z,4.60
2019-01-09T08:36:17.054Z,4.60
2019-01-09T08:38:48.426Z,4.70
2019-01-09T08:41:19.861Z,4.70
2019-01-09T08:43:50.925Z,4.70
2019-01-09T08:46:22.320Z,4.70
2019-01-09T08:48:53.367Z,4.70
2019-01-09T08:51:25.058Z,4.80
2019-01-09T08:53:58.352Z,4.80
2019-01-09T08:56:29.876Z,4.80
2019-01-09T08:59:01.297Z,4.80
2019-01-09T09:01:32.712Z,4.90
2019-01-09T09:04:04.009Z,4.90
2019-01-09T09:06:35.235Z,4.90
2019-01-09T09:09:07.712Z,4.90
2019-01-09T09:11:38.665Z,5.00
2019-01-09T09:14:09.919Z,5.00
2019-01-09T09:16:41.312Z,5.00
2019-01-09T09:19:12.429Z,5.00
2019-01-09T09:21:44.030Z,5.10
2019-01-09T09:24:15.118Z,5.10
2019-01-09T09:26:46.389Z,5.20
2019-01-09T09:29:18.814Z,5.20
2019-01-09T09:31:49.947Z,5.20
2019-01-09T09:34:21.811Z,5.20
2019-01-09T09:36:53.304Z,5.30
2019-01-09T09:39:24.673Z,5.30
2019-01-09T09:41:55.967Z,5.40
2019-01-09T09:44:27.524Z,5.40
2019-01-09T09:46:59.178Z,5.50
2019-01-09T09:49:30.560Z,5.50
2019-01-09T09:52:01.832Z,5.60
2019-01-09T09:54:33.159Z,5.60
2019-01-09T09:57:04.761Z,5.60
2019-01-09T09:59:36.369Z,5.70
2019-01-09T10:02:07.381Z,5.70
2019-01-09T10:04:38.628Z,5.80
2019-01-09T10:07:09.608Z,5.80
2019-01-09T10:09:40.916Z,5.80
2019-01-09T10:12:12.238Z,5.90
2019-01-09T10:14:43.476Z,6.00
2019-01-09T10:17:14.466Z,6.00
2019-01-09T10:19:45.593Z,6.00
2019-01-09T10:22:23.113Z,6.00
2019-01-09T10:24:57.910Z,6.00
2019-01-09T10:27:29.440Z,6.10
2019-01-09T10:30:00.938Z,6.10
2019-01-09T10:32:32.221Z,6.20
2019-01-09T10:35:03.465Z,6.20
2019-01-09T10:37:36.957Z,6.20
2019-01-09T10:40:09.871Z,6.20
2019-01-09T10:42:41.319Z,6.20
2019-01-09T10:45:14.124Z,6.30
2019-01-09T10:47:45.300Z,6.40
2019-01-09T10:50:16.943Z,6.40
2019-01-09T10:52:48.065Z,6.40
2019-01-09T10:55:19.686Z,6.40
2019-01-09T10:57:51.036Z,6.50
2019-01-09T11:00:24.092Z,6.50
2019-01-09T11:02:55.564Z,6.50
2019-01-09T11:05:26.905Z,6.60
2019-01-09T11:07:58.209Z,6.60
2019-01-09T11:10:29.394Z,6.60
2019-01-09T11:13:00.766Z,6.60
2019-01-09T11:15:31.671Z,6.60
2019-01-09T11:18:02.552Z,6.60
2019-01-09T11:20:33.810Z,6.70
2019-01-09T11:23:05.608Z,6.70
2019-01-09T11:25:36.985Z,6.70
2019-01-09T11:28:08.130Z,6.70
2019-01-09T11:30:39.253Z,6.60
2019-01-09T11:33:10.773Z,6.50
2019-01-09T11:35:44.394Z,6.40
2019-01-09T11:38:15.745Z,6.40
2019-01-09T11:40:46.750Z,6.40
2019-01-09T11:43:17.819Z,6.40
2019-01-09T11:45:48.705Z,6.40
2019-01-09T11:48:19.862Z,6.40
2019-01-09T11:50:51.060Z,6.40
2019-01-09T11:53:22.325Z,6.40
2019-01-09T11:55:55.338Z,6.50
2019-01-09T11:58:26.790Z,6.50
2019-01-09T12:00:58.014Z,6.60
2019-01-09T12:03:32.553Z,6.60
2019-01-09T12:06:03.886Z,6.60
2019-01-09T12:08:34.920Z,6.60
2019-01-09T12:11:06.341Z,6.70
2019-01-09T12:13:37.589Z,6.70
2019-01-09T12:16:08.524Z,6.70
2019-01-09T12:18:39.686Z,6.70
2019-01-09T12:21:16.755Z,6.70
2019-01-09T12:23:43.672Z,6.70
2019-01-09T12:26:15.060Z,6.70
2019-01-09T12:28:53.343Z,6.70
2019-01-09T12:31:18.660Z,6.80
2019-01-09T12:33:50.030Z,6.80
2019-01-09T12:36:21.275Z,6.70
2019-01-09T12:38:52.360Z,6.70
2019-01-09T12:41:23.219Z,6.60
2019-01-09T12:43:54.893Z,6.70
2019-01-09T12:46:26.546Z,6.60
2019-01-09T12:48:57.952Z,6.70
2019-01-09T12:51:28.825Z,6.60
2019-01-09T12:54:00.189Z,6.60
2019-01-09T12:56:31.240Z,6.50
2019-01-09T12:59:02.501Z,6.50
2019-01-09T13:01:34.145Z,6.40
2019-01-09T13:04:07.510Z,6.40
2019-01-09T13:06:38.089Z,6.40
2019-01-09T13:09:10.802Z,6.50
2019-01-09T13:11:42.094Z,6.50
2019-01-09T13:14:13.609Z,6.60
2019-01-09T13:16:47.922Z,6.60
2019-01-09T13:19:19.503Z,6.60
2019-01-09T13:21:50.624Z,6.60
2019-01-09T13:24:23.908Z,6.60
2019-01-09T13:26:55.688Z,6.60
2019-01-09T13:29:26.814Z,6.60
2019-01-09T13:31:57.792Z,6.50
2019-01-09T13:34:29.112Z,6.50
2019-01-09T13:37:00.384Z,6.50
2019-01-09T13:39:32.253Z,6.50
2019-01-09T13:42:03.625Z,6.40
2019-01-09T13:44:35.012Z,6.40
2019-01-09T13:47:06.817Z,6.40
2019-01-09T13:49:37.989Z,6.40
2019-01-09T13:52:09.259Z,6.40
2019-01-09T13:54:40.617Z,6.30
2019-01-09T13:57:11.654Z,6.30
2019-01-09T13:59:43.974Z,6.30
2019-01-09T14:02:15.735Z,6.30
2019-01-09T14:04:47.209Z,6.30
2019-01-09T14:07:19.014Z,6.30
2019-01-09T14:09:52.289Z,6.30
2019-01-09T14:12:25.023Z,6.30
2019-01-09T14:14:56.426Z,6.30
2019-01-09T14:17:27.520Z,6.20
2019-01-09T14:19:59.527Z,6.20
2019-01-09T14:22:33.039Z,6.20
2019-01-09T14:25:04.690Z,6.30
2019-01-09T14:27:38.035Z,6.20
2019-01-09T14:30:12.876Z,6.20
2019-01-09T14:32:44.382Z,6.20
2019-01-09T14:35:15.706Z,6.20
2019-01-09T14:37:46.757Z,6.20
2019-01-09T14:40:20.368Z,6.20
2019-01-09T14:42:51.822Z,6.20
2019-01-09T14:45:23.510Z,6.20
2019-01-09T14:47:55.626Z,6.10
2019-01-09T14:50:26.755Z,6.00
2019-01-09T14:52:58.089Z,5.90
2019-01-09T14:55:32.983Z,5.90
2019-01-09T14:58:06.283Z,5.90
2019-01-09T15:00:47.108Z,6.00
2019-01-09T15:03:19.473Z,6.00
2019-01-09T15:05:51.845Z,6.00
2019-01-09T15:08:34.969Z,5.90
2019-01-09T15:11:06.719Z,5.90
2019-01-09T15:13:38.118Z,5.80
2019-01-09T15:16:09.230Z,5.80
2019-01-09T15:18:41.978Z,5.80
2019-01-09T15:21:13.091Z,5.70
2019-01-09T15:23:44.690Z,5.70
2019-01-09T15:26:16.486Z,5.70
2019-01-09T15:28:48.099Z,5.60
2019-01-09T15:31:19.477Z,5.60
2019-01-09T15:33:50.827Z,5.60
2019-01-09T15:36:21.827Z,5.60
2019-01-09T15:38:53.162Z,5.60
2019-01-09T15:41:24.375Z,5.50
2019-01-09T15:43:55.709Z,5.50
2019-01-09T15:46:26.576Z,5.50
2019-01-09T15:48:58.598Z,5.50
2019-01-09T15:51:30.251Z,5.50
2019-01-09T15:54:01.368Z,5.50
2019-01-09T15:56:32.831Z,5.50
2019-01-09T15:59:05.182Z,5.40
2019-01-09T16:01:37.146Z,5.40
2019-01-09T16:04:08.746Z,5.40
2019-01-09T16:06:40.990Z,5.30
2019-01-09T16:09:12.201Z,5.30
2019-01-09T16:11:44.812Z,5.20
2019-01-09T16:14:16.008Z,5.20
2019-01-09T16:16:47.180Z,5.20
2019-01-09T16:19:18.143Z,5.20
2019-01-09T16:21:52.371Z,5.10
2019-01-09T16:24:23.931Z,5.10
2019-01-09T16:26:55.736Z,5.00
2019-01-09T16:29:26.842Z,5.10
2019-01-09T16:32:00.346Z,5.10
2019-01-09T16:34:31.762Z,5.10
2019-01-09T16:37:04.780Z,5.00
2019-01-09T16:39:36.337Z,5.00
2019-01-09T16:42:07.595Z,5.00
2019-01-09T16:44:39.962Z,5.00
2019-01-09T16:47:11.773Z,4.90
2019-01-09T16:49:43.258Z,4.90
2019-01-09T16:52:14.489Z,4.80
2019-01-09T16:54:45.950Z,4.80
2019-01-09T16:57:17.414Z,4.80
2019-01-09T16:59:49.089Z,4.80
2019-01-09T17:02:21.142Z,4.80
2019-01-09T17:04:52.292Z,4.80
2019-01-09T17:07:23.905Z,4.80
2019-01-09T17:09:55.228Z,4.70
2019-01-09T17:12:26.311Z,4.60
2019-01-09T17:14:57.352Z,4.60
2019-01-09T17:17:29.060Z,4.60
2019-01-09T17:20:00.600Z,4.50
2019-01-09T17:22:32.301Z,4.60
2019-01-09T17:25:05.572Z,4.50
2019-01-09T17:27:36.589Z,4.50
2019-01-09T17:30:11.693Z,4.60
2019-01-09T17:32:43.443Z,4.60
2019-01-09T17:35:15.032Z,4.60
2019-01-09T17:37:46.372Z,4.60
2019-01-09T17:40:18.060Z,4.50
2019-01-09T17:42:50.495Z,4.50
2019-01-09T17:45:22.041Z,4.50
2019-01-09T17:47:56.644Z,4.50
2019-01-09T17:50:30.109Z,4.50
2019-01-09T17:53:01.789Z,4.50
2019-01-09T17:55:33.060Z,4.40
2019-01-09T17:58:04.337Z,4.40
2019-01-09T18:00:37.903Z,4.50
2019-01-09T18:03:11.641Z,4.50
2019-01-09T18:05:44.160Z,4.50
2019-01-09T18:08:16.689Z,4.50
2019-01-09T18:10:50.496Z,4.40
2019-01-09T18:13:22.349Z,4.30
2019-01-09T18:15:53.652Z,4.40
2019-01-09T18:18:24.735Z,4.40
2019-01-09T18:20:56.076Z,4.30
2019-01-09T18:23:27.120Z,4.30
2019-01-09T18:25:58.591Z,4.30
2019-01-09T18:28:29.732Z,4.30
2019-01-09T18:31:19.979Z,4.30
2019-01-09T18:34:11.204Z,4.20
2019-01-09T18:36:53.896Z,4.10
2019-01-09T18:40:00.083Z,4.10
2019-01-09T18:43:17.228Z,4.20
2019-01-09T18:46:03.332Z,4.30
2019-01-09T18:49:09.068Z,4.20
2019-01-09T18:52:38.145Z,4.20
2019-01-09T18:55:09.217Z,4.10
2019-01-09T18:57:40.669Z,4.10
2019-01-09T19:00:17.840Z,4.10
2019-01-09T19:02:49.091Z,4.00
2019-01-09T19:05:20.454Z,4.10
2019-01-09T19:07:52.124Z,4.10
2019-01-09T19:10:24.384Z,4.10
2019-01-09T19:12:56.986Z,4.10
2019-01-09T19:15:31.130Z,4.20
2019-01-09T19:18:02.574Z,4.10
2019-01-09T19:20:34.062Z,4.10
2019-01-09T19:23:05.546Z,4.20
2019-01-09T19:25:37.483Z,4.10
2019-01-09T19:28:08.914Z,4.10
2019-01-09T19:30:40.263Z,4.10
2019-01-09T19:33:12.673Z,4.10
2019-01-09T19:35:44.733Z,4.10
2019-01-09T19:38:16.282Z,4.10
2019-01-09T19:40:47.926Z,4.10
2019-01-09T19:43:19.717Z,4.00
2019-01-09T19:45:55.274Z,4.00
2019-01-09T19:48:26.362Z,3.90
2019-01-09T19:50:59.431Z,3.90
2019-01-09T19:53:31.060Z,3.90
2019-01-09T19:56:02.525Z,3.90
2019-01-09T19:58:34.031Z,3.90
2019-01-09T20:01:05.833Z,4.00
2019-01-09T20:03:39.270Z,3.90
2019-01-09T20:06:10.715Z,3.90
2019-01-09T20:08:43.119Z,3.90
2019-01-09T20:11:16.024Z,3.90
2019-01-09T20:13:47.294Z,4.00
2019-01-09T20:16:18.516Z,3.90
2019-01-09T20:18:50.060Z,3.90
2019-01-09T20:21:21.796Z,3.90
2019-01-09T20:23:52.954Z,3.90
2019-01-09T20:26:23.935Z,3.90
2019-01-09T20:28:54.760Z,3.90
2019-01-09T20:31:25.907Z,3.90
2019-01-09T20:33:59.644Z,3.90
2019-01-09T20:36:31.330Z,3.90
2019-01-09T20:39:02.221Z,4.00
2019-01-09T20:41:35.478Z,3.90
2019-01-09T20:44:06.405Z,3.90
2019-01-09T20:46:38.934Z,3.90
2019-01-09T20:49:10.052Z,3.90
2019-01-09T20:51:41.234Z,3.90
2019-01-09T20:54:12.590Z,3.90
2019-01-09T20:56:43.756Z,3.80
2019-01-09T20:59:14.977Z,3.90
2019-01-09T21:01:46.143Z,3.90
2019-01-09T21:04:17.508Z,3.90
2019-01-09T21:06:49.153Z,4.00
2019-01-09T21:09:21.261Z,3.90
2019-01-09T21:11:52.392Z,3.90
2019-01-09T21:14:23.539Z,3.90
2019-01-09T21:16:56.174Z,3.80
2019-01-09T21:19:27.369Z,3.80
2019-01-09T21:21:58.192Z,3.80
2019-01-09T21:24:30.892Z,3.80
2019-01-09T21:27:01.687Z,3.80
2019-01-09T21:29:33.312Z,3.80
2019-01-09T21:32:04.618Z,3.80
2019-01-09T21:34:35.840Z,3.80
2019-01-09T21:37:06.632Z,3.80
2019-01-09T21:39:37.670Z,3.70
2019-01-09T21:42:08.818Z,3.70
2019-01-09T21:44:40.177Z,3.70
2019-01-09T21:47:12.511Z,3.70
2019-01-09T21:49:43.747Z,3.70
2019-01-09T21:52:14.827Z,3.70
2019-01-09T21:54:48.905Z,3.60
2019-01-09T21:57:22.303Z,3.70
2019-01-09T21:59:55.182Z,3.60
2019-01-09T22:02:26.352Z,3.60
2019-01-09T22:04:58.403Z,3.60
2019-01-09T22:07:29.535Z,3.60
2019-01-09T22:10:00.599Z,3.60
2019-01-09T22:12:31.773Z,3.60
2019-01-09T22:15:03.017Z,3.60
2019-01-09T22:17:34.400Z,3.60
2019-01-09T22:20:06.525Z,3.60
2019-01-09T22:22:37.884Z,3.60
2019-01-09T22:25:10.746Z,3.60
2019-01-09T22:27:41.845Z,3.60
2019-01-09T22:30:18.633Z,3.60
2019-01-09T22:32:51.186Z,3.60
2019-01-09T22:35:22.509Z,3.60
2019-01-09T22:37:53.451Z,3.60
2019-01-09T22:40:24.564Z,3.60
2019-01-09T22:42:55.903Z,3.50
2019-01-09T22:45:26.804Z,3.60
2019-01-09T22:47:58.152Z,3.60
2019-01-09T22:50:29.521Z,3.60
2019-01-09T22:53:00.632Z,3.50
2019-01-09T22:55:31.732Z,3.50
2019-01-09T22:58:02.855Z,3.50
2019-01-09T23:00:43.041Z,3.50
2019-01-09T23:03:13.924Z,3.50
2019-01-09T23:05:45.134Z,3.50
2019-01-09T23:08:16.132Z,3.50
2019-01-09T23:10:54.353Z,3.50
2019-01-09T23:13:20.445Z,3.50
2019-01-09T23:15:51.564Z,3.50
2019-01-09T23:18:22.905Z,3.40
2019-01-09T23:20:54.014Z,3.40
2019-01-09T23:23:25.364Z,3.40
2019-01-09T23:25:56.845Z,3.30
2019-01-09T23:28:29.137Z,3.30
2019-01-09T23:31:00.233Z,3.30
2019-01-09T23:33:31.323Z,3.20
2019-01-09T23:36:02.464Z,3.20
2019-01-09T23:38:33.270Z,3.20
2019-01-09T23:41:04.776Z,3.10
2019-01-09T23:43:36.369Z,3.20
2019-01-09T23:46:07.446Z,3.20
2019-01-09T23:48:38.530Z,3.20
2019-01-09T23:51:09.419Z,3.20
2019-01-09T23:53:42.000Z,3.20
2019-01-09T23:56:13.044Z,3.20
2019-01-09T23:58:43.972Z,3.20
